createdAt,value
2023-05-06T00:01:03.943Z,64.30
2023-05-06T00:03:30.813Z,64.37
2023-05-06T00:06:02.953Z,64.42
2023-05-06T00:08:29.565Z,63.89
2023-05-06T00:10:56.401Z,64.49
2023-05-06T00:13:22.966Z,65.13
2023-05-06T00:15:49.558Z,65.40
2023-05-06T00:18:16.536Z,65.27
2023-05-06T00:20:43.409Z,65.54
2023-05-06T00:23:09.981Z,65.54
2023-05-06T00:25:36.600Z,65.79
2023-05-06T00:28:03.368Z,65.77
2023-05-06T00:30:30.000Z,66.12
2023-05-06T00:32:56.700Z,66.11
2023-05-06T00:35:23.345Z,66.08
2023-05-06T00:38:10.951Z,65.87
2023-05-06T00:40:37.574Z,66.09
2023-05-06T00:43:04.214Z,64.50
2023-05-06T00:45:31.096Z,65.56
2023-05-06T00:47:58.961Z,66.53
2023-05-06T00:50:28.369Z,64.33
2023-05-06T00:52:57.066Z,63.89
2023-05-06T00:55:24.364Z,62.73
2023-05-06T00:57:52.221Z,63.69
2023-05-06T01:00:20.280Z,64.86
2023-05-06T01:02:48.262Z,65.46
2023-05-06T01:05:21.113Z,65.97
2023-05-06T01:08:01.111Z,65.44
2023-05-06T01:10:48.987Z,66.58
2023-05-06T01:13:27.100Z,66.29
2023-05-06T01:15:55.899Z,67.22
2023-05-06T01:18:25.652Z,67.48
2023-05-06T01:20:54.704Z,67.50
2023-05-06T01:23:21.462Z,67.02
2023-05-06T01:25:48.213Z,66.52
2023-05-06T01:28:14.994Z,66.16
2023-05-06T01:31:05.421Z,66.05
2023-05-06T01:33:43.861Z,65.46
2023-05-06T01:36:30.610Z,65.29
2023-05-06T01:39:10.087Z,65.52
2023-05-06T01:41:42.108Z,65.61
2023-05-06T01:44:10.896Z,65.52
2023-05-06T01:46:37.695Z,65.63
2023-05-06T01:49:08.156Z,66.46
2023-05-06T01:51:34.982Z,66.64
2023-05-06T01:54:02.442Z,66.71
2023-05-06T01:56:30.394Z,66.94
2023-05-06T01:58:59.529Z,67.12
2023-05-06T02:01:26.966Z,66.75
2023-05-06T02:03:53.718Z,67.16
2023-05-06T02:06:20.375Z,67.42
2023-05-06T02:08:47.144Z,67.91
2023-05-06T02:11:13.735Z,67.86
2023-05-06T02:13:40.461Z,67.69
2023-05-06T02:16:08.955Z,68.27
2023-05-06T02:18:35.813Z,68.27
2023-05-06T02:21:03.359Z,66.18
2023-05-06T02:23:30.067Z,66.12
2023-05-06T02:25:58.115Z,65.92
2023-05-06T02:28:25.449Z,65.54
2023-05-06T02:30:56.555Z,65.91
2023-05-06T02:33:23.851Z,66.51
2023-05-06T02:35:51.629Z,66.54
2023-05-06T02:38:19.295Z,66.87
2023-05-06T02:40:45.925Z,66.67
2023-05-06T02:43:12.620Z,67.18
2023-05-06T02:45:39.440Z,67.80
2023-05-06T02:48:06.407Z,67.81
2023-05-06T02:50:33.883Z,68.40
2023-05-06T02:53:00.478Z,68.49
2023-05-06T02:55:27.159Z,68.48
2023-05-06T02:57:53.787Z,68.74
2023-05-06T03:00:21.043Z,68.28
2023-05-06T03:02:47.643Z,68.44
2023-05-06T03:05:14.295Z,68.26
2023-05-06T03:07:41.399Z,67.88
2023-05-06T03:10:08.309Z,68.24
2023-05-06T03:12:35.134Z,67.78
2023-05-06T03:15:04.394Z,68.04
2023-05-06T03:17:31.043Z,68.34
2023-05-06T03:19:57.716Z,67.37
2023-05-06T03:22:24.329Z,67.29
2023-05-06T03:24:50.959Z,67.91
2023-05-06T03:27:17.630Z,68.22
2023-05-06T03:29:44.235Z,67.92
2023-05-06T03:32:10.841Z,68.82
2023-05-06T03:34:37.514Z,68.86
2023-05-06T03:37:04.132Z,68.80
2023-05-06T03:39:30.941Z,68.62
2023-05-06T03:41:57.694Z,67.72
2023-05-06T03:44:24.388Z,67.53
2023-05-06T03:46:50.963Z,67.92
2023-05-06T03:49:17.590Z,67.51
2023-05-06T03:51:44.223Z,67.31
2023-05-06T03:54:11.027Z,66.81
2023-05-06T03:56:37.670Z,66.33
2023-05-06T03:59:04.260Z,66.35
2023-05-06T04:01:30.906Z,65.83
2023-05-06T04:03:57.678Z,65.64
2023-05-06T04:06:24.366Z,65.69
2023-05-06T04:08:50.983Z,65.28
2023-05-06T04:11:17.547Z,65.75
2023-05-06T04:13:44.334Z,66.05
2023-05-06T04:16:11.139Z,66.46
2023-05-06T04:18:37.854Z,66.33
2023-05-06T04:21:04.654Z,66.56
2023-05-06T04:23:31.352Z,66.65
2023-05-06T04:25:58.129Z,67.06
2023-05-06T04:28:24.812Z,66.89
2023-05-06T04:30:53.926Z,66.57
2023-05-06T04:33:24.096Z,66.45
2023-05-06T04:35:54.736Z,65.92
2023-05-06T04:38:25.937Z,65.51
2023-05-06T04:40:52.847Z,65.95
2023-05-06T04:43:19.720Z,65.41
2023-05-06T04:45:49.881Z,64.81
2023-05-06T04:48:22.060Z,65.39
2023-05-06T04:50:49.673Z,66.00
2023-05-06T04:53:16.819Z,66.10
2023-05-06T04:55:43.792Z,65.49
2023-05-06T04:58:13.310Z,64.93
2023-05-06T05:00:40.058Z,64.76
2023-05-06T05:03:06.734Z,65.22
2023-05-06T05:05:36.429Z,65.45
2023-05-06T05:08:03.197Z,64.06
2023-05-06T05:10:29.845Z,64.44
2023-05-06T05:12:56.545Z,65.07
2023-05-06T05:15:23.220Z,65.06
2023-05-06T05:17:51.184Z,65.26
2023-05-06T05:20:20.224Z,64.26
2023-05-06T05:22:46.822Z,63.65
2023-05-06T05:25:13.676Z,63.77
2023-05-06T05:27:42.277Z,62.62
2023-05-06T05:30:09.477Z,62.31
2023-05-06T05:32:36.344Z,62.22
2023-05-06T05:35:03.064Z,62.26
2023-05-06T05:37:29.733Z,62.20
2023-05-06T05:39:56.353Z,61.68
2023-05-06T05:42:22.991Z,61.28
2023-05-06T05:44:49.637Z,60.67
2023-05-06T05:47:16.378Z,60.17
2023-05-06T05:49:43.081Z,59.91
2023-05-06T05:52:10.373Z,59.80
2023-05-06T05:54:37.294Z,60.26
2023-05-06T05:57:04.030Z,60.17
2023-05-06T05:59:31.740Z,60.33
2023-05-06T06:01:58.593Z,60.35
2023-05-06T06:04:25.681Z,59.57
2023-05-06T06:06:52.386Z,59.40
2023-05-06T06:09:19.011Z,59.32
2023-05-06T06:11:45.624Z,59.13
2023-05-06T06:14:12.256Z,58.50
2023-05-06T06:16:39.050Z,58.42
2023-05-06T06:19:06.588Z,58.26
2023-05-06T06:21:33.382Z,58.76
2023-05-06T06:24:00.174Z,59.46
2023-05-06T06:26:26.818Z,59.25
2023-05-06T06:28:53.538Z,59.56
2023-05-06T06:31:20.140Z,59.83
2023-05-06T06:33:46.753Z,59.64
2023-05-06T06:36:13.377Z,59.52
2023-05-06T06:38:41.555Z,58.56
2023-05-06T06:41:08.162Z,59.31
2023-05-06T06:43:34.772Z,60.06
2023-05-06T06:46:01.550Z,60.14
2023-05-06T06:48:28.284Z,59.52
2023-05-06T06:50:54.948Z,59.64
2023-05-06T06:53:21.587Z,59.40
2023-05-06T06:55:50.386Z,58.64
2023-05-06T06:58:16.990Z,57.76
2023-05-06T07:00:43.564Z,57.89
2023-05-06T07:03:10.252Z,58.05
2023-05-06T07:05:36.930Z,58.33
2023-05-06T07:08:03.597Z,59.05
2023-05-06T07:10:30.286Z,58.79
2023-05-06T07:12:58.369Z,59.40
2023-05-06T07:15:25.270Z,58.70
2023-05-06T07:17:51.949Z,58.47
2023-05-06T07:20:18.711Z,57.81
2023-05-06T07:22:45.983Z,58.96
2023-05-06T07:25:13.112Z,58.99
2023-05-06T07:27:39.973Z,59.48
2023-05-06T07:30:07.324Z,59.24
2023-05-06T07:32:34.090Z,59.66
2023-05-06T07:35:00.850Z,59.03
2023-05-06T07:37:27.488Z,57.51
2023-05-06T07:39:54.208Z,56.49
2023-05-06T07:42:20.816Z,56.41
2023-05-06T07:44:47.483Z,56.42
2023-05-06T07:47:27.595Z,56.37
2023-05-06T07:49:55.017Z,56.34
2023-05-06T07:52:22.834Z,55.76
2023-05-06T07:54:49.488Z,55.41
2023-05-06T07:57:16.871Z,54.51
2023-05-06T07:59:44.572Z,53.70
2023-05-06T08:02:11.207Z,52.74
2023-05-06T08:04:40.884Z,53.83
2023-05-06T08:07:07.555Z,53.82
2023-05-06T08:09:34.305Z,53.33
2023-05-06T08:12:00.976Z,53.30
2023-05-06T08:14:27.695Z,53.99
2023-05-06T08:16:54.781Z,53.87
2023-05-06T08:19:21.542Z,54.41
2023-05-06T08:21:48.809Z,54.63
2023-05-06T08:24:15.500Z,54.61
2023-05-06T08:26:42.170Z,54.74
2023-05-06T08:29:08.740Z,54.75
2023-05-06T08:31:35.501Z,54.92
2023-05-06T08:34:02.161Z,55.24
2023-05-06T08:36:28.764Z,56.40
2023-05-06T08:38:55.409Z,58.01
2023-05-06T08:41:22.273Z,58.46
2023-05-06T08:43:50.390Z,58.21
2023-05-06T08:46:18.095Z,58.06
2023-05-06T08:48:45.478Z,57.54
2023-05-06T08:51:15.413Z,57.36
2023-05-06T08:53:49.086Z,57.70
2023-05-06T08:56:16.871Z,57.10
2023-05-06T08:58:46.693Z,56.67
2023-05-06T09:01:15.107Z,56.60
2023-05-06T09:03:41.897Z,57.15
2023-05-06T09:06:08.655Z,56.09
2023-05-06T09:08:36.255Z,55.68
2023-05-06T09:11:03.152Z,56.45
2023-05-06T09:13:30.317Z,56.86
2023-05-06T09:15:57.046Z,57.09
2023-05-06T09:18:23.854Z,57.10
2023-05-06T09:20:50.599Z,57.24
2023-05-06T09:23:18.319Z,57.04
2023-05-06T09:25:47.052Z,57.02
2023-05-06T09:28:14.581Z,57.79
2023-05-06T09:30:45.677Z,57.87
2023-05-06T09:33:12.612Z,57.77
2023-05-06T09:35:42.126Z,58.29
2023-05-06T09:38:09.586Z,58.54
2023-05-06T09:40:37.177Z,58.18
2023-05-06T09:43:04.889Z,57.31
2023-05-06T09:45:31.774Z,57.39
2023-05-06T09:47:59.370Z,57.88
2023-05-06T09:50:26.828Z,58.00
2023-05-06T09:52:55.281Z,58.49
2023-05-06T09:55:23.483Z,58.49
2023-05-06T09:57:50.483Z,58.83
2023-05-06T10:00:17.739Z,58.81
2023-05-06T10:02:45.890Z,59.10
2023-05-06T10:05:13.604Z,59.12
2023-05-06T10:07:42.396Z,58.69
2023-05-06T10:10:11.599Z,59.15
2023-05-06T10:12:38.994Z,59.97
2023-05-06T10:15:06.603Z,59.81
2023-05-06T10:17:35.644Z,59.83
2023-05-06T10:20:04.785Z,59.22
2023-05-06T10:22:40.396Z,59.49
2023-05-06T10:25:14.611Z,59.03
2023-05-06T10:27:44.378Z,58.68
2023-05-06T10:30:14.078Z,58.57
2023-05-06T10:32:43.219Z,58.52
2023-05-06T10:35:22.771Z,58.94
2023-05-06T10:37:51.761Z,59.24
2023-05-06T10:40:19.252Z,59.12
2023-05-06T10:42:45.913Z,59.45
2023-05-06T10:45:15.366Z,58.67
2023-05-06T10:47:57.828Z,59.42
2023-05-06T10:50:26.301Z,59.26
2023-05-06T10:52:57.849Z,59.42
2023-05-06T10:55:42.543Z,60.80
2023-05-06T10:58:16.347Z,61.74
2023-05-06T11:00:54.476Z,63.17
2023-05-06T11:03:23.877Z,63.35
2023-05-06T11:05:52.247Z,63.70
2023-05-06T11:08:28.032Z,63.40
2023-05-06T11:10:54.926Z,63.51
2023-05-06T11:13:29.193Z,63.56
2023-05-06T11:15:57.112Z,64.00
2023-05-06T11:18:32.031Z,63.75
2023-05-06T11:21:02.450Z,63.78
2023-05-06T11:23:49.552Z,64.06
2023-05-06T11:26:16.759Z,63.57
2023-05-06T11:28:45.060Z,63.41
2023-05-06T11:31:13.341Z,63.08
2023-05-06T11:33:47.124Z,62.94
2023-05-06T11:36:20.756Z,62.78
2023-05-06T11:38:52.793Z,62.12
2023-05-06T11:41:20.073Z,61.96
2023-05-06T11:43:47.705Z,62.28
2023-05-06T11:46:14.330Z,61.70
2023-05-06T11:48:40.896Z,62.11
2023-05-06T11:51:08.382Z,62.49
2023-05-06T11:53:35.222Z,62.02
2023-05-06T11:56:02.130Z,61.46
2023-05-06T11:58:31.680Z,60.73
2023-05-06T12:01:00.619Z,60.97
2023-05-06T12:03:29.354Z,61.71
2023-05-06T12:05:56.503Z,61.71
2023-05-06T12:08:27.837Z,60.83
2023-05-06T12:11:02.727Z,59.51
2023-05-06T12:13:30.109Z,60.14
2023-05-06T12:15:59.323Z,60.37
2023-05-06T12:18:26.728Z,59.49
2023-05-06T12:20:57.635Z,59.71
2023-05-06T12:23:24.302Z,59.94
2023-05-06T12:26:01.386Z,59.13
2023-05-06T12:28:28.099Z,58.49
2023-05-06T12:30:54.680Z,58.85
2023-05-06T12:33:21.548Z,58.16
2023-05-06T12:35:48.984Z,57.93
2023-05-06T12:38:17.071Z,58.88
2023-05-06T12:40:52.627Z,58.36
2023-05-06T12:43:19.251Z,58.80
2023-05-06T12:46:03.564Z,59.71
2023-05-06T12:48:30.372Z,59.62
2023-05-06T12:50:57.131Z,60.40
2023-05-06T12:53:35.641Z,60.10
2023-05-06T12:56:02.266Z,60.10
2023-05-06T12:58:28.881Z,59.59
2023-05-06T13:00:55.492Z,59.75
2023-05-06T13:03:22.141Z,60.03
2023-05-06T13:05:50.387Z,60.26
2023-05-06T13:08:17.069Z,60.22
2023-05-06T13:10:43.750Z,59.69
2023-05-06T13:13:10.430Z,59.69
2023-05-06T13:15:37.391Z,59.41
2023-05-06T13:18:04.291Z,57.87
2023-05-06T13:20:32.397Z,55.01
2023-05-06T13:22:59.390Z,54.80
2023-05-06T13:25:26.022Z,55.30
2023-05-06T13:27:53.225Z,55.09
2023-05-06T13:30:19.937Z,56.22
2023-05-06T13:32:47.260Z,55.30
2023-05-06T13:35:13.896Z,56.34
2023-05-06T13:37:40.610Z,55.77
2023-05-06T13:40:08.747Z,55.40
2023-05-06T13:42:36.456Z,55.43
2023-05-06T13:45:03.171Z,55.47
2023-05-06T13:47:29.799Z,56.16
2023-05-06T13:49:56.388Z,54.44
2023-05-06T13:52:25.315Z,54.15
2023-05-06T13:54:52.030Z,54.40
2023-05-06T13:57:19.069Z,53.72
2023-05-06T13:59:45.924Z,53.72
2023-05-06T14:02:13.010Z,54.08
2023-05-06T14:04:39.848Z,53.81
2023-05-06T14:07:07.620Z,53.92
2023-05-06T14:09:34.380Z,54.31
2023-05-06T14:12:01.492Z,55.32
2023-05-06T14:14:28.259Z,54.51
2023-05-06T14:16:55.720Z,54.97
2023-05-06T14:19:22.384Z,54.96
2023-05-06T14:21:49.057Z,54.67
2023-05-06T14:24:18.123Z,54.06
2023-05-06T14:26:46.155Z,54.06
2023-05-06T14:29:12.877Z,53.54
2023-05-06T14:31:39.501Z,54.37
2023-05-06T14:34:06.145Z,56.06
2023-05-06T14:36:32.805Z,59.40
2023-05-06T14:38:59.492Z,62.50
2023-05-06T14:41:27.353Z,63.60
2023-05-06T14:43:54.073Z,64.69
2023-05-06T14:46:21.068Z,67.52
2023-05-06T14:48:47.724Z,68.20
2023-05-06T14:51:14.350Z,70.61
2023-05-06T14:53:41.382Z,72.55
2023-05-06T14:56:10.340Z,73.64
2023-05-06T14:58:37.233Z,71.78
2023-05-06T15:01:03.892Z,72.39
2023-05-06T15:03:30.632Z,73.43
2023-05-06T15:05:57.374Z,74.56
2023-05-06T15:08:24.157Z,75.44
2023-05-06T15:10:53.716Z,75.69
2023-05-06T15:13:20.489Z,74.81
2023-05-06T15:15:50.280Z,74.10
2023-05-06T15:18:17.046Z,73.15
2023-05-06T15:20:46.644Z,72.44
2023-05-06T15:23:13.252Z,71.90
2023-05-06T15:25:40.000Z,71.19
2023-05-06T15:28:06.780Z,70.39
2023-05-06T15:30:36.197Z,70.24
2023-05-06T15:33:02.998Z,70.34
2023-05-06T15:35:33.326Z,68.42
2023-05-06T15:38:03.297Z,68.45
2023-05-06T15:40:30.128Z,67.93
2023-05-06T15:42:58.192Z,67.25
2023-05-06T15:45:27.689Z,67.13
2023-05-06T15:47:55.579Z,66.30
2023-05-06T15:50:32.479Z,65.59
2023-05-06T15:53:01.641Z,67.84
2023-05-06T15:55:35.073Z,66.06
2023-05-06T15:58:08.108Z,65.35
2023-05-06T16:00:34.788Z,65.37
2023-05-06T16:03:01.566Z,65.30
2023-05-06T16:05:28.189Z,65.17
2023-05-06T16:07:56.009Z,65.76
2023-05-06T16:10:22.824Z,66.89
2023-05-06T16:12:52.571Z,67.36
2023-05-06T16:15:19.600Z,68.01
2023-05-06T16:17:46.269Z,68.46
2023-05-06T16:20:13.255Z,69.15
2023-05-06T16:22:40.521Z,69.27
2023-05-06T16:25:07.419Z,69.29
2023-05-06T16:27:34.059Z,68.48
2023-05-06T16:30:01.060Z,68.03
2023-05-06T16:32:27.908Z,67.70
2023-05-06T16:34:54.764Z,67.76
2023-05-06T16:37:21.439Z,69.64
2023-05-06T16:39:48.050Z,70.25
2023-05-06T16:42:14.601Z,69.68
2023-05-06T16:44:41.228Z,69.92
2023-05-06T16:47:07.940Z,69.83
2023-05-06T16:49:34.624Z,70.06
2023-05-06T16:52:01.383Z,69.92
2023-05-06T16:54:28.065Z,68.99
2023-05-06T16:56:54.860Z,69.36
2023-05-06T16:59:22.429Z,69.96
2023-05-06T17:01:49.901Z,70.59
2023-05-06T17:04:16.872Z,71.33
2023-05-06T17:06:43.523Z,71.76
2023-05-06T17:09:10.993Z,71.97
2023-05-06T17:11:37.699Z,71.40
2023-05-06T17:14:04.358Z,71.56
2023-05-06T17:16:31.086Z,71.97
2023-05-06T17:18:57.724Z,74.31
2023-05-06T17:21:25.109Z,75.91
2023-05-06T17:23:54.444Z,76.50
2023-05-06T17:26:21.690Z,77.05
2023-05-06T17:28:48.463Z,78.27
2023-05-06T17:31:17.594Z,78.63
2023-05-06T17:33:45.301Z,77.95
2023-05-06T17:36:13.701Z,78.19
2023-05-06T17:38:40.309Z,78.27
2023-05-06T17:41:06.905Z,78.82
2023-05-06T17:43:34.227Z,79.79
2023-05-06T17:46:01.221Z,80.09
2023-05-06T17:48:27.845Z,79.78
2023-05-06T17:50:55.762Z,79.48
2023-05-06T17:53:23.110Z,78.04
2023-05-06T17:55:49.667Z,77.86
2023-05-06T17:58:17.412Z,77.42
2023-05-06T18:00:44.162Z,77.39
2023-05-06T18:03:11.467Z,76.98
2023-05-06T18:05:38.184Z,77.05
2023-05-06T18:08:04.940Z,77.14
2023-05-06T18:10:31.570Z,76.96
2023-05-06T18:12:58.392Z,76.64
2023-05-06T18:15:26.011Z,77.42
2023-05-06T18:17:52.742Z,77.86
2023-05-06T18:20:19.444Z,78.45
2023-05-06T18:22:46.475Z,79.33
2023-05-06T18:25:13.197Z,79.00
2023-05-06T18:27:40.098Z,79.32
2023-05-06T18:30:07.412Z,79.29
2023-05-06T18:32:34.814Z,79.65
2023-05-06T18:35:01.673Z,81.02
2023-05-06T18:37:29.226Z,81.70
2023-05-06T18:39:55.984Z,82.81
2023-05-06T18:42:23.005Z,82.63
2023-05-06T18:44:52.710Z,84.12
2023-05-06T18:47:19.879Z,84.84
2023-05-06T18:49:46.466Z,85.24
2023-05-06T18:52:14.950Z,84.84
2023-05-06T18:54:41.799Z,84.80
2023-05-06T18:57:08.523Z,84.74
2023-05-06T18:59:35.157Z,84.44
2023-05-06T19:02:03.718Z,85.32
2023-05-06T19:04:31.516Z,85.85
2023-05-06T19:06:58.227Z,85.82
2023-05-06T19:09:24.831Z,85.84
2023-05-06T19:11:51.416Z,86.19
2023-05-06T19:14:18.094Z,86.02
2023-05-06T19:16:45.144Z,85.83
2023-05-06T19:19:11.856Z,85.49
2023-05-06T19:21:38.541Z,85.46
2023-05-06T19:24:06.520Z,85.72
2023-05-06T19:26:33.169Z,86.21
2023-05-06T19:28:59.812Z,85.45
2023-05-06T19:31:26.574Z,85.51
2023-05-06T19:33:53.281Z,84.83
2023-05-06T19:36:19.976Z,84.73
2023-05-06T19:38:46.556Z,85.09
2023-05-06T19:41:13.471Z,85.37
2023-05-06T19:43:43.998Z,85.53
2023-05-06T19:46:11.793Z,85.88
2023-05-06T19:48:41.691Z,86.27
2023-05-06T19:51:08.539Z,86.62
2023-05-06T19:53:36.220Z,86.65
2023-05-06T19:56:12.998Z,86.24
2023-05-06T19:58:39.807Z,85.58
2023-05-06T20:01:06.599Z,85.43
2023-05-06T20:03:33.578Z,85.57
2023-05-06T20:06:00.708Z,85.80
2023-05-06T20:08:27.481Z,86.74
2023-05-06T20:10:54.395Z,86.96
2023-05-06T20:13:21.113Z,87.28
2023-05-06T20:15:48.885Z,87.08
2023-05-06T20:18:15.794Z,87.19
2023-05-06T20:20:43.433Z,86.86
2023-05-06T20:23:10.150Z,87.46
2023-05-06T20:25:37.361Z,87.17
2023-05-06T20:28:06.654Z,86.79
2023-05-06T20:30:33.933Z,85.91
2023-05-06T20:33:01.165Z,85.09
2023-05-06T20:35:28.014Z,83.67
2023-05-06T20:37:55.801Z,83.23
2023-05-06T20:40:22.492Z,83.04
2023-05-06T20:42:49.173Z,82.21
2023-05-06T20:45:16.030Z,81.87
2023-05-06T20:47:42.790Z,81.68
2023-05-06T20:50:16.431Z,81.87
2023-05-06T20:52:47.258Z,81.48
2023-05-06T20:55:16.616Z,81.76
2023-05-06T20:57:44.377Z,81.59
2023-05-06T21:00:11.638Z,81.42
2023-05-06T21:02:41.153Z,81.61
2023-05-06T21:05:09.374Z,81.84
2023-05-06T21:07:36.396Z,81.80
2023-05-06T21:10:05.741Z,82.16
2023-05-06T21:12:33.398Z,82.13
2023-05-06T21:15:00.979Z,82.68
2023-05-06T21:17:28.719Z,83.07
2023-05-06T21:19:55.539Z,82.98
2023-05-06T21:22:23.442Z,83.16
2023-05-06T21:24:50.838Z,82.71
2023-05-06T21:27:17.564Z,83.51
2023-05-06T21:29:44.206Z,84.26
2023-05-06T21:32:10.975Z,84.53
2023-05-06T21:34:37.754Z,84.83
2023-05-06T21:37:04.401Z,85.09
2023-05-06T21:39:31.183Z,84.83
2023-05-06T21:41:57.875Z,84.84
2023-05-06T21:44:24.491Z,84.74
2023-05-06T21:46:51.367Z,85.07
2023-05-06T21:49:19.526Z,85.01
2023-05-06T21:51:46.176Z,85.13
2023-05-06T21:54:12.980Z,84.73
2023-05-06T21:56:39.685Z,84.71
2023-05-06T21:59:07.893Z,84.65
2023-05-06T22:01:36.349Z,84.85
2023-05-06T22:04:04.933Z,84.63
2023-05-06T22:06:31.628Z,84.38
2023-05-06T22:08:58.203Z,84.72
2023-05-06T22:11:24.922Z,85.40
2023-05-06T22:13:51.898Z,85.66
2023-05-06T22:16:18.655Z,84.81
2023-05-06T22:18:45.281Z,85.08
2023-05-06T22:21:11.946Z,84.81
2023-05-06T22:23:40.535Z,84.54
2023-05-06T22:26:07.256Z,84.67
2023-05-06T22:28:34.122Z,84.32
2023-05-06T22:31:00.750Z,84.64
2023-05-06T22:33:27.435Z,84.44
2023-05-06T22:35:55.420Z,84.15
2023-05-06T22:38:22.081Z,84.66
2023-05-06T22:40:48.778Z,84.62
2023-05-06T22:43:15.510Z,84.60
2023-05-06T22:45:42.251Z,84.56
2023-05-06T22:48:08.981Z,85.35
2023-05-06T22:50:36.457Z,85.75
2023-05-06T22:53:13.573Z,85.17
2023-05-06T22:55:41.901Z,85.11
2023-05-06T22:58:08.500Z,85.13
2023-05-06T23:00:35.168Z,85.50
2023-05-06T23:03:01.971Z,85.51
2023-05-06T23:05:28.687Z,85.83
2023-05-06T23:07:55.303Z,85.85
2023-05-06T23:10:21.908Z,85.83
2023-05-06T23:12:48.615Z,86.07
2023-05-06T23:15:15.328Z,86.07
2023-05-06T23:17:42.072Z,86.06
2023-05-06T23:20:09.059Z,85.64
2023-05-06T23:22:35.774Z,85.37
2023-05-06T23:25:02.401Z,85.14
2023-05-06T23:27:28.998Z,85.18
2023-05-06T23:29:55.992Z,84.85
2023-05-06T23:32:22.578Z,84.80
2023-05-06T23:34:49.592Z,84.81
2023-05-06T23:37:17.585Z,84.68
2023-05-06T23:39:44.351Z,85.08
2023-05-06T23:42:11.226Z,85.28
2023-05-06T23:44:37.764Z,85.97
2023-05-06T23:47:04.421Z,85.97
2023-05-06T23:49:31.851Z,86.10
2023-05-06T23:51:58.466Z,86.42
2023-05-06T23:54:25.143Z,86.52
2023-05-06T23:56:51.772Z,86.67
2023-05-06T23:59:18.436Z,87.09
